sensor_id;sensor_type;location;lat;lon;timestamp;temperature;humidity
71647;SHT31;59706;45.634;11.704;2023-03-31T00:01:12;14.37;67.30
71647;SHT31;59706;45.634;11.704;2023-03-31T00:03:41;14.37;67.31
71647;SHT31;59706;45.634;11.704;2023-03-31T00:06:09;14.36;67.38
71647;SHT31;59706;45.634;11.704;2023-03-31T00:08:42;14.32;67.42
71647;SHT31;59706;45.634;11.704;2023-03-31T00:11:08;14.30;67.49
71647;SHT31;59706;45.634;11.704;2023-03-31T00:13:36;14.25;67.54
71647;SHT31;59706;45.634;11.704;2023-03-31T00:16:05;14.23;67.60
71647;SHT31;59706;45.634;11.704;2023-03-31T00:18:34;14.30;67.50
71647;SHT31;59706;45.634;11.704;2023-03-31T00:21:05;14.37;67.50
71647;SHT31;59706;45.634;11.704;2023-03-31T00:23:38;14.37;67.63
71647;SHT31;59706;45.634;11.704;2023-03-31T00:26:06;14.39;67.62
71647;SHT31;59706;45.634;11.704;2023-03-31T00:28:33;14.41;67.51
71647;SHT31;59706;45.634;11.704;2023-03-31T00:31:01;14.37;67.49
71647;SHT31;59706;45.634;11.704;2023-03-31T00:33:28;14.37;67.56
71647;SHT31;59706;45.634;11.704;2023-03-31T00:35:55;14.31;67.70
71647;SHT31;59706;45.634;11.704;2023-03-31T00:38:26;14.37;67.64
71647;SHT31;59706;45.634;11.704;2023-03-31T00:40:54;14.37;67.63
71647;SHT31;59706;45.634;11.704;2023-03-31T00:43:26;14.33;67.76
71647;SHT31;59706;45.634;11.704;2023-03-31T00:46:02;14.27;67.84
71647;SHT31;59706;45.634;11.704;2023-03-31T00:49:15;14.24;67.70
71647;SHT31;59706;45.634;11.704;2023-03-31T00:52:00;14.27;67.67
71647;SHT31;59706;45.634;11.704;2023-03-31T00:54:33;14.35;67.59
71647;SHT31;59706;45.634;11.704;2023-03-31T00:57:03;14.43;67.44
71647;SHT31;59706;45.634;11.704;2023-03-31T00:59:33;14.48;67.36
71647;SHT31;59706;45.634;11.704;2023-03-31T01:02:08;14.52;67.28
71647;SHT31;59706;45.634;11.704;2023-03-31T01:04:40;14.55;67.15
71647;SHT31;59706;45.634;11.704;2023-03-31T01:09:49;14.50;67.33
71647;SHT31;59706;45.634;11.704;2023-03-31T01:12:19;14.50;67.53
71647;SHT31;59706;45.634;11.704;2023-03-31T01:14:47;14.51;67.59
71647;SHT31;59706;45.634;11.704;2023-03-31T01:17:15;14.44;67.82
71647;SHT31;59706;45.634;11.704;2023-03-31T01:52:24;14.16;68.90
71647;SHT31;59706;45.634;11.704;2023-03-31T01:54:53;14.12;68.91
71647;SHT31;59706;45.634;11.704;2023-03-31T01:57:30;14.12;68.93
71647;SHT31;59706;45.634;11.704;2023-03-31T02:00:04;14.10;68.93
71647;SHT31;59706;45.634;11.704;2023-03-31T02:05:23;14.11;69.01
71647;SHT31;59706;45.634;11.704;2023-03-31T02:07:58;14.11;68.98
71647;SHT31;59706;45.634;11.704;2023-03-31T02:10:32;14.15;69.00
71647;SHT31;59706;45.634;11.704;2023-03-31T02:13:00;14.14;69.06
71647;SHT31;59706;45.634;11.704;2023-03-31T02:15:29;14.09;69.13
71647;SHT31;59706;45.634;11.704;2023-03-31T02:18:03;14.08;69.19
71647;SHT31;59706;45.634;11.704;2023-03-31T02:20:35;14.06;69.26
71647;SHT31;59706;45.634;11.704;2023-03-31T02:23:09;14.10;69.29
71647;SHT31;59706;45.634;11.704;2023-03-31T02:25:41;14.13;69.31
71647;SHT31;59706;45.634;11.704;2023-03-31T02:28:17;14.15;69.27
71647;SHT31;59706;45.634;11.704;2023-03-31T02:33:25;14.17;69.23
71647;SHT31;59706;45.634;11.704;2023-03-31T02:35:53;14.16;69.21
71647;SHT31;59706;45.634;11.704;2023-03-31T02:38:20;14.13;69.28
71647;SHT31;59706;45.634;11.704;2023-03-31T02:40:47;14.13;69.29
71647;SHT31;59706;45.634;11.704;2023-03-31T02:43:15;14.11;69.31
71647;SHT31;59706;45.634;11.704;2023-03-31T02:45:44;14.05;69.31
71647;SHT31;59706;45.634;11.704;2023-03-31T02:59:12;14.28;68.82
71647;SHT31;59706;45.634;11.704;2023-03-31T03:10:07;14.15;68.73
71647;SHT31;59706;45.634;11.704;2023-03-31T03:12:48;14.12;68.76
71647;SHT31;59706;45.634;11.704;2023-03-31T03:15:27;14.16;68.84
71647;SHT31;59706;45.634;11.704;2023-03-31T03:18:02;14.18;68.98
71647;SHT31;59706;45.634;11.704;2023-03-31T03:20:30;14.23;68.90
71647;SHT31;59706;45.634;11.704;2023-03-31T03:22:58;14.23;68.92
71647;SHT31;59706;45.634;11.704;2023-03-31T03:25:25;14.25;68.95
71647;SHT31;59706;45.634;11.704;2023-03-31T03:27:54;14.27;69.00
71647;SHT31;59706;45.634;11.704;2023-03-31T03:30:23;14.26;69.09
71647;SHT31;59706;45.634;11.704;2023-03-31T03:32:50;14.26;69.03
71647;SHT31;59706;45.634;11.704;2023-03-31T03:35:18;14.26;69.03
71647;SHT31;59706;45.634;11.704;2023-03-31T03:37:45;14.27;69.00
71647;SHT31;59706;45.634;11.704;2023-03-31T03:40:12;14.21;69.00
71647;SHT31;59706;45.634;11.704;2023-03-31T03:42:40;14.19;69.08
71647;SHT31;59706;45.634;11.704;2023-03-31T03:45:07;14.20;69.00
71647;SHT31;59706;45.634;11.704;2023-03-31T03:47:34;14.22;68.93
71647;SHT31;59706;45.634;11.704;2023-03-31T03:50:02;14.21;68.92
71647;SHT31;59706;45.634;11.704;2023-03-31T03:52:29;14.24;68.90
71647;SHT31;59706;45.634;11.704;2023-03-31T03:54:56;14.26;68.91
71647;SHT31;59706;45.634;11.704;2023-03-31T03:57:22;14.25;69.01
71647;SHT31;59706;45.634;11.704;2023-03-31T03:59:50;14.23;69.05
71647;SHT31;59706;45.634;11.704;2023-03-31T04:02:17;14.23;69.10
71647;SHT31;59706;45.634;11.704;2023-03-31T04:04:44;14.22;69.19
71647;SHT31;59706;45.634;11.704;2023-03-31T04:07:11;14.21;69.20
71647;SHT31;59706;45.634;11.704;2023-03-31T04:09:38;14.16;69.30
71647;SHT31;59706;45.634;11.704;2023-03-31T04:12:06;14.13;69.39
71647;SHT31;59706;45.634;11.704;2023-03-31T04:14:33;14.09;69.49
71647;SHT31;59706;45.634;11.704;2023-03-31T04:17:00;14.05;69.48
71647;SHT31;59706;45.634;11.704;2023-03-31T04:19:27;13.99;69.64
71647;SHT31;59706;45.634;11.704;2023-03-31T04:21:54;14.03;69.58
71647;SHT31;59706;45.634;11.704;2023-03-31T04:24:26;14.06;69.57
71647;SHT31;59706;45.634;11.704;2023-03-31T04:26:56;14.03;69.62
71647;SHT31;59706;45.634;11.704;2023-03-31T04:29:24;14.02;69.73
71647;SHT31;59706;45.634;11.704;2023-03-31T04:31:52;14.07;69.70
71647;SHT31;59706;45.634;11.704;2023-03-31T04:34:23;14.05;69.76
71647;SHT31;59706;45.634;11.704;2023-03-31T04:36:58;13.99;69.83
71647;SHT31;59706;45.634;11.704;2023-03-31T04:39:26;13.96;69.92
71647;SHT31;59706;45.634;11.704;2023-03-31T04:41:57;13.94;69.99
71647;SHT31;59706;45.634;11.704;2023-03-31T04:44:25;13.90;70.12
71647;SHT31;59706;45.634;11.704;2023-03-31T04:46:52;13.87;70.11
71647;SHT31;59706;45.634;11.704;2023-03-31T04:49:20;13.84;70.17
71647;SHT31;59706;45.634;11.704;2023-03-31T04:51:47;13.88;70.21
71647;SHT31;59706;45.634;11.704;2023-03-31T04:54:13;13.98;69.94
71647;SHT31;59706;45.634;11.704;2023-03-31T04:56:40;14.01;69.80
71647;SHT31;59706;45.634;11.704;2023-03-31T04:59:07;14.01;69.74
71647;SHT31;59706;45.634;11.704;2023-03-31T05:01:35;14.03;69.67
71647;SHT31;59706;45.634;11.704;2023-03-31T05:04:03;14.06;69.70
71647;SHT31;59706;45.634;11.704;2023-03-31T05:06:30;14.05;69.79
71647;SHT31;59706;45.634;11.704;2023-03-31T05:08:56;14.04;69.82
71647;SHT31;59706;45.634;11.704;2023-03-31T05:11:23;14.02;69.91
71647;SHT31;59706;45.634;11.704;2023-03-31T05:13:51;13.98;70.01
71647;SHT31;59706;45.634;11.704;2023-03-31T05:16:18;13.97;70.10
71647;SHT31;59706;45.634;11.704;2023-03-31T05:18:45;13.99;70.06
71647;SHT31;59706;45.634;11.704;2023-03-31T05:21:13;13.99;70.02
71647;SHT31;59706;45.634;11.704;2023-03-31T05:23:42;13.99;70.07
71647;SHT31;59706;45.634;11.704;2023-03-31T05:26:10;13.99;70.03
71647;SHT31;59706;45.634;11.704;2023-03-31T05:28:37;14.02;70.06
71647;SHT31;59706;45.634;11.704;2023-03-31T05:31:06;13.99;70.01
71647;SHT31;59706;45.634;11.704;2023-03-31T05:33:35;13.95;70.19
71647;SHT31;59706;45.634;11.704;2023-03-31T05:36:05;13.87;70.27
71647;SHT31;59706;45.634;11.704;2023-03-31T05:38:34;13.86;70.38
71647;SHT31;59706;45.634;11.704;2023-03-31T05:43:48;13.86;70.46
71647;SHT31;59706;45.634;11.704;2023-03-31T05:46:15;13.90;70.33
71647;SHT31;59706;45.634;11.704;2023-03-31T05:48:42;13.96;70.40
71647;SHT31;59706;45.634;11.704;2023-03-31T05:51:09;13.95;70.22
71647;SHT31;59706;45.634;11.704;2023-03-31T05:53:36;13.92;70.04
71647;SHT31;59706;45.634;11.704;2023-03-31T05:56:04;13.91;69.97
71647;SHT31;59706;45.634;11.704;2023-03-31T05:58:35;13.91;69.96
71647;SHT31;59706;45.634;11.704;2023-03-31T06:01:06;13.94;70.03
71647;SHT31;59706;45.634;11.704;2023-03-31T06:03:38;13.96;70.01
71647;SHT31;59706;45.634;11.704;2023-03-31T06:06:06;13.91;70.06
71647;SHT31;59706;45.634;11.704;2023-03-31T06:08:34;13.91;70.26
71647;SHT31;59706;45.634;11.704;2023-03-31T06:11:05;13.93;70.38
71647;SHT31;59706;45.634;11.704;2023-03-31T06:13:34;13.97;70.30
71647;SHT31;59706;45.634;11.704;2023-03-31T06:16:00;13.99;70.28
71647;SHT31;59706;45.634;11.704;2023-03-31T06:18:27;14.01;70.20
71647;SHT31;59706;45.634;11.704;2023-03-31T06:20:56;14.00;70.20
71647;SHT31;59706;45.634;11.704;2023-03-31T06:23:23;14.01;70.15
71647;SHT31;59706;45.634;11.704;2023-03-31T06:25:51;14.01;70.11
71647;SHT31;59706;45.634;11.704;2023-03-31T06:28:19;14.05;70.09
71647;SHT31;59706;45.634;11.704;2023-03-31T06:30:46;14.02;70.01
71647;SHT31;59706;45.634;11.704;2023-03-31T06:33:14;14.03;69.80
71647;SHT31;59706;45.634;11.704;2023-03-31T06:35:41;14.05;69.61
71647;SHT31;59706;45.634;11.704;2023-03-31T06:38:08;14.10;69.57
71647;SHT31;59706;45.634;11.704;2023-03-31T06:40:34;14.13;69.47
71647;SHT31;59706;45.634;11.704;2023-03-31T06:43:01;14.15;69.48
71647;SHT31;59706;45.634;11.704;2023-03-31T06:45:29;14.13;69.38
71647;SHT31;59706;45.634;11.704;2023-03-31T06:47:56;14.12;69.23
71647;SHT31;59706;45.634;11.704;2023-03-31T06:50:23;14.10;69.08
71647;SHT31;59706;45.634;11.704;2023-03-31T06:52:50;14.12;69.02
71647;SHT31;59706;45.634;11.704;2023-03-31T06:55:19;14.18;69.01
71647;SHT31;59706;45.634;11.704;2023-03-31T06:57:45;14.22;68.97
71647;SHT31;59706;45.634;11.704;2023-03-31T07:00:12;14.19;68.81
71647;SHT31;59706;45.634;11.704;2023-03-31T07:02:44;14.17;68.78
71647;SHT31;59706;45.634;11.704;2023-03-31T07:05:11;14.12;68.81
71647;SHT31;59706;45.634;11.704;2023-03-31T07:07:38;14.17;68.78
71647;SHT31;59706;45.634;11.704;2023-03-31T07:10:05;14.21;68.77
71647;SHT31;59706;45.634;11.704;2023-03-31T07:12:34;14.19;68.83
71647;SHT31;59706;45.634;11.704;2023-03-31T07:15:01;14.09;69.04
71647;SHT31;59706;45.634;11.704;2023-03-31T07:17:28;14.04;69.15
71647;SHT31;59706;45.634;11.704;2023-03-31T07:19:55;14.03;69.20
71647;SHT31;59706;45.634;11.704;2023-03-31T07:22:22;14.02;69.02
71647;SHT31;59706;45.634;11.704;2023-03-31T07:24:50;14.00;68.98
71647;SHT31;59706;45.634;11.704;2023-03-31T07:27:17;13.98;69.09
71647;SHT31;59706;45.634;11.704;2023-03-31T07:29:44;14.08;69.17
71647;SHT31;59706;45.634;11.704;2023-03-31T07:32:11;14.20;69.03
71647;SHT31;59706;45.634;11.704;2023-03-31T07:34:39;14.31;69.03
71647;SHT31;59706;45.634;11.704;2023-03-31T07:37:06;14.36;69.06
71647;SHT31;59706;45.634;11.704;2023-03-31T07:39:34;14.41;69.17
71647;SHT31;59706;45.634;11.704;2023-03-31T07:42:01;14.43;69.30
71647;SHT31;59706;45.634;11.704;2023-03-31T07:44:28;14.39;69.48
71647;SHT31;59706;45.634;11.704;2023-03-31T07:46:59;14.37;69.67
71647;SHT31;59706;45.634;11.704;2023-03-31T07:49:29;14.40;69.76
71647;SHT31;59706;45.634;11.704;2023-03-31T07:51:56;14.46;69.80
71647;SHT31;59706;45.634;11.704;2023-03-31T07:54:23;14.52;69.84
71647;SHT31;59706;45.634;11.704;2023-03-31T07:56:51;14.51;69.83
71647;SHT31;59706;45.634;11.704;2023-03-31T07:59:18;14.54;69.60
71647;SHT31;59706;45.634;11.704;2023-03-31T08:01:46;14.52;69.42
71647;SHT31;59706;45.634;11.704;2023-03-31T08:04:12;14.56;69.35
71647;SHT31;59706;45.634;11.704;2023-03-31T08:06:39;14.57;69.31
71647;SHT31;59706;45.634;11.704;2023-03-31T08:09:06;14.55;69.24
71647;SHT31;59706;45.634;11.704;2023-03-31T08:11:34;14.51;69.15
71647;SHT31;59706;45.634;11.704;2023-03-31T08:14:00;14.48;69.13
71647;SHT31;59706;45.634;11.704;2023-03-31T08:16:27;14.49;69.19
71647;SHT31;59706;45.634;11.704;2023-03-31T08:18:54;14.49;69.21
71647;SHT31;59706;45.634;11.704;2023-03-31T08:21:21;14.50;69.31
71647;SHT31;59706;45.634;11.704;2023-03-31T08:23:48;14.54;69.35
71647;SHT31;59706;45.634;11.704;2023-03-31T08:26:18;14.63;68.98
71647;SHT31;59706;45.634;11.704;2023-03-31T08:28:48;14.65;68.79
71647;SHT31;59706;45.634;11.704;2023-03-31T08:31:16;14.65;69.15
71647;SHT31;59706;45.634;11.704;2023-03-31T08:33:45;14.67;69.39
71647;SHT31;59706;45.634;11.704;2023-03-31T08:36:12;14.66;69.57
71647;SHT31;59706;45.634;11.704;2023-03-31T08:38:40;14.63;69.62
71647;SHT31;59706;45.634;11.704;2023-03-31T08:44:35;14.63;69.56
71647;SHT31;59706;45.634;11.704;2023-03-31T08:47:20;14.62;69.53
71647;SHT31;59706;45.634;11.704;2023-03-31T08:49:50;14.62;69.49
71647;SHT31;59706;45.634;11.704;2023-03-31T08:52:26;14.69;69.16
71647;SHT31;59706;45.634;11.704;2023-03-31T08:55:23;14.73;69.20
71647;SHT31;59706;45.634;11.704;2023-03-31T08:58:13;14.81;69.00
71647;SHT31;59706;45.634;11.704;2023-03-31T09:01:13;14.90;68.70
71647;SHT31;59706;45.634;11.704;2023-03-31T09:15:39;14.90;68.82
71647;SHT31;59706;45.634;11.704;2023-03-31T09:21:13;14.90;68.81
71647;SHT31;59706;45.634;11.704;2023-03-31T09:26:47;14.95;68.68
71647;SHT31;59706;45.634;11.704;2023-03-31T09:29:57;15.05;68.44
71647;SHT31;59706;45.634;11.704;2023-03-31T09:32:30;14.99;68.32
71647;SHT31;59706;45.634;11.704;2023-03-31T09:35:06;14.97;68.31
71647;SHT31;59706;45.634;11.704;2023-03-31T09:37:49;14.99;68.34
71647;SHT31;59706;45.634;11.704;2023-03-31T09:40:21;14.97;68.24
71647;SHT31;59706;45.634;11.704;2023-03-31T09:42:51;14.96;68.32
71647;SHT31;59706;45.634;11.704;2023-03-31T09:45:22;14.90;68.48
71647;SHT31;59706;45.634;11.704;2023-03-31T09:47:50;14.94;68.40
71647;SHT31;59706;45.634;11.704;2023-03-31T09:50:22;14.93;68.30
71647;SHT31;59706;45.634;11.704;2023-03-31T09:52:59;14.96;68.26
71647;SHT31;59706;45.634;11.704;2023-03-31T09:55:39;15.02;68.28
71647;SHT31;59706;45.634;11.704;2023-03-31T09:58:13;15.05;68.25
71647;SHT31;59706;45.634;11.704;2023-03-31T10:00:42;15.00;68.32
71647;SHT31;59706;45.634;11.704;2023-03-31T10:03:30;14.99;68.45
71647;SHT31;59706;45.634;11.704;2023-03-31T10:06:00;14.96;68.44
71647;SHT31;59706;45.634;11.704;2023-03-31T10:08:38;14.96;68.57
71647;SHT31;59706;45.634;11.704;2023-03-31T10:11:09;14.97;68.41
71647;SHT31;59706;45.634;11.704;2023-03-31T10:16:33;15.05;68.43
71647;SHT31;59706;45.634;11.704;2023-03-31T10:19:26;15.07;68.48
71647;SHT31;59706;45.634;11.704;2023-03-31T10:24:37;14.98;68.68
71647;SHT31;59706;45.634;11.704;2023-03-31T10:27:14;14.99;68.69
71647;SHT31;59706;45.634;11.704;2023-03-31T10:30:03;15.01;68.64
71647;SHT31;59706;45.634;11.704;2023-03-31T10:32:40;14.97;68.63
71647;SHT31;59706;45.634;11.704;2023-03-31T10:35:32;14.99;68.58
71647;SHT31;59706;45.634;11.704;2023-03-31T10:38:07;15.07;68.50
71647;SHT31;59706;45.634;11.704;2023-03-31T10:40:40;15.13;68.40
71647;SHT31;59706;45.634;11.704;2023-03-31T10:43:50;15.13;68.41
71647;SHT31;59706;45.634;11.704;2023-03-31T10:46:18;15.15;68.35
71647;SHT31;59706;45.634;11.704;2023-03-31T10:48:46;15.24;68.25
71647;SHT31;59706;45.634;11.704;2023-03-31T10:51:20;15.23;67.98
71647;SHT31;59706;45.634;11.704;2023-03-31T10:53:52;15.27;68.01
71647;SHT31;59706;45.634;11.704;2023-03-31T11:10:45;15.38;67.84
71647;SHT31;59706;45.634;11.704;2023-03-31T11:22:20;15.48;68.22
71647;SHT31;59706;45.634;11.704;2023-03-31T11:26:00;15.61;68.13
71647;SHT31;59706;45.634;11.704;2023-03-31T11:28:53;15.64;68.13
71647;SHT31;59706;45.634;11.704;2023-03-31T11:31:38;15.66;67.87
71647;SHT31;59706;45.634;11.704;2023-03-31T11:38:04;15.69;67.61
71647;SHT31;59706;45.634;11.704;2023-03-31T11:40:41;15.78;67.63
71647;SHT31;59706;45.634;11.704;2023-03-31T11:46:18;15.90;66.95
71647;SHT31;59706;45.634;11.704;2023-03-31T11:49:00;15.93;67.08
71647;SHT31;59706;45.634;11.704;2023-03-31T11:51:50;16.09;66.72
71647;SHT31;59706;45.634;11.704;2023-03-31T11:57:29;16.31;66.43
71647;SHT31;59706;45.634;11.704;2023-03-31T12:00:05;16.53;66.46
71647;SHT31;59706;45.634;11.704;2023-03-31T12:05:33;16.80;66.03
71647;SHT31;59706;45.634;11.704;2023-03-31T12:08:25;16.86;65.42
71647;SHT31;59706;45.634;11.704;2023-03-31T12:11:10;16.95;65.40
71647;SHT31;59706;45.634;11.704;2023-03-31T12:17:14;17.19;65.31
71647;SHT31;59706;45.634;11.704;2023-03-31T12:22:32;17.22;65.06
71647;SHT31;59706;45.634;11.704;2023-03-31T12:25:03;17.19;64.42
71647;SHT31;59706;45.634;11.704;2023-03-31T12:27:37;17.11;64.45
71647;SHT31;59706;45.634;11.704;2023-03-31T12:30:33;17.15;64.27
71647;SHT31;59706;45.634;11.704;2023-03-31T12:33:09;17.17;64.40
71647;SHT31;59706;45.634;11.704;2023-03-31T12:36:06;17.16;64.18
71647;SHT31;59706;45.634;11.704;2023-03-31T12:53:30;16.57;63.35
71647;SHT31;59706;45.634;11.704;2023-03-31T12:56:07;16.49;63.41
71647;SHT31;59706;45.634;11.704;2023-03-31T12:58:37;16.44;63.73
71647;SHT31;59706;45.634;11.704;2023-03-31T13:01:13;16.42;63.71
71647;SHT31;59706;45.634;11.704;2023-03-31T13:06:58;16.65;63.92
71647;SHT31;59706;45.634;11.704;2023-03-31T13:09:38;16.75;63.71
71647;SHT31;59706;45.634;11.704;2023-03-31T13:12:20;16.75;63.74
71647;SHT31;59706;45.634;11.704;2023-03-31T13:14:50;16.76;63.74
71647;SHT31;59706;45.634;11.704;2023-03-31T13:17:28;16.77;63.71
71647;SHT31;59706;45.634;11.704;2023-03-31T13:22:59;16.76;64.05
71647;SHT31;59706;45.634;11.704;2023-03-31T13:28:10;16.70;63.88
71647;SHT31;59706;45.634;11.704;2023-03-31T13:38:46;16.51;64.09
71647;SHT31;59706;45.634;11.704;2023-03-31T13:47:39;16.52;65.14
71647;SHT31;59706;45.634;11.704;2023-03-31T14:08:23;16.76;65.77
71647;SHT31;59706;45.634;11.704;2023-03-31T14:13:59;16.69;65.64
71647;SHT31;59706;45.634;11.704;2023-03-31T14:16:38;16.70;65.64
71647;SHT31;59706;45.634;11.704;2023-03-31T14:19:39;16.65;65.60
71647;SHT31;59706;45.634;11.704;2023-03-31T14:31:34;16.40;66.70
71647;SHT31;59706;45.634;11.704;2023-03-31T14:39:34;16.46;66.54
71647;SHT31;59706;45.634;11.704;2023-03-31T14:42:09;16.45;66.57
71647;SHT31;59706;45.634;11.704;2023-03-31T14:44:39;16.38;66.84
71647;SHT31;59706;45.634;11.704;2023-03-31T14:47:22;16.31;66.96
71647;SHT31;59706;45.634;11.704;2023-03-31T14:50:00;16.29;66.88
71647;SHT31;59706;45.634;11.704;2023-03-31T14:52:36;16.27;66.44
71647;SHT31;59706;45.634;11.704;2023-03-31T14:55:04;16.23;66.14
71647;SHT31;59706;45.634;11.704;2023-03-31T14:57:39;16.24;65.90
71647;SHT31;59706;45.634;11.704;2023-03-31T15:00:10;16.18;66.08
71647;SHT31;59706;45.634;11.704;2023-03-31T15:02:48;16.16;66.25
71647;SHT31;59706;45.634;11.704;2023-03-31T15:05:22;16.15;66.46
71647;SHT31;59706;45.634;11.704;2023-03-31T15:08:04;16.15;66.80
71647;SHT31;59706;45.634;11.704;2023-03-31T15:10:37;16.22;66.85
71647;SHT31;59706;45.634;11.704;2023-03-31T15:13:14;16.24;66.90
71647;SHT31;59706;45.634;11.704;2023-03-31T15:15:45;16.27;66.88
71647;SHT31;59706;45.634;11.704;2023-03-31T15:18:13;16.29;66.85
71647;SHT31;59706;45.634;11.704;2023-03-31T15:20:42;16.29;66.86
71647;SHT31;59706;45.634;11.704;2023-03-31T15:23:26;16.28;67.11
71647;SHT31;59706;45.634;11.704;2023-03-31T15:25:57;16.28;67.24
71647;SHT31;59706;45.634;11.704;2023-03-31T15:28:34;16.27;67.17
71647;SHT31;59706;45.634;11.704;2023-03-31T15:31:08;16.21;67.30
71647;SHT31;59706;45.634;11.704;2023-03-31T15:33:35;16.16;67.40
71647;SHT31;59706;45.634;11.704;2023-03-31T15:36:06;16.12;67.63
71647;SHT31;59706;45.634;11.704;2023-03-31T15:38:35;16.12;67.87
71647;SHT31;59706;45.634;11.704;2023-03-31T15:41:02;16.22;67.81
71647;SHT31;59706;45.634;11.704;2023-03-31T15:49:03;16.26;67.84
71647;SHT31;59706;45.634;11.704;2023-03-31T15:51:37;16.25;67.91
71647;SHT31;59706;45.634;11.704;2023-03-31T15:54:32;16.22;68.03
71647;SHT31;59706;45.634;11.704;2023-03-31T15:57:06;16.17;68.30
71647;SHT31;59706;45.634;11.704;2023-03-31T15:59:44;16.16;68.39
71647;SHT31;59706;45.634;11.704;2023-03-31T16:02:16;16.13;68.44
71647;SHT31;59706;45.634;11.704;2023-03-31T16:04:53;16.08;68.51
71647;SHT31;59706;45.634;11.704;2023-03-31T16:07:24;16.09;68.48
71647;SHT31;59706;45.634;11.704;2023-03-31T16:09:59;16.11;68.31
71647;SHT31;59706;45.634;11.704;2023-03-31T16:15:31;16.00;68.56
71647;SHT31;59706;45.634;11.704;2023-03-31T16:18:09;15.99;68.43
71647;SHT31;59706;45.634;11.704;2023-03-31T16:20:49;15.97;68.40
71647;SHT31;59706;45.634;11.704;2023-03-31T16:23:38;15.93;68.45
71647;SHT31;59706;45.634;11.704;2023-03-31T16:26:08;15.93;68.51
71647;SHT31;59706;45.634;11.704;2023-03-31T16:28:35;15.91;68.51
71647;SHT31;59706;45.634;11.704;2023-03-31T16:31:04;15.80;68.65
71647;SHT31;59706;45.634;11.704;2023-03-31T16:33:54;15.77;68.62
71647;SHT31;59706;45.634;11.704;2023-03-31T16:36:22;15.84;68.43
71647;SHT31;59706;45.634;11.704;2023-03-31T16:38:52;15.82;68.46
71647;SHT31;59706;45.634;11.704;2023-03-31T16:41:19;15.76;68.73
71647;SHT31;59706;45.634;11.704;2023-03-31T16:43:47;15.72;69.08
71647;SHT31;59706;45.634;11.704;2023-03-31T16:46:16;15.67;69.47
71647;SHT31;59706;45.634;11.704;2023-03-31T16:48:44;15.63;69.64
71647;SHT31;59706;45.634;11.704;2023-03-31T16:51:10;15.60;69.62
71647;SHT31;59706;45.634;11.704;2023-03-31T16:53:37;15.55;69.85
71647;SHT31;59706;45.634;11.704;2023-03-31T16:56:05;15.53;70.05
71647;SHT31;59706;45.634;11.704;2023-03-31T16:58:36;15.53;70.30
71647;SHT31;59706;45.634;11.704;2023-03-31T17:01:03;15.50;70.43
71647;SHT31;59706;45.634;11.704;2023-03-31T17:03:31;15.45;70.68
71647;SHT31;59706;45.634;11.704;2023-03-31T17:06:03;15.44;70.85
71647;SHT31;59706;45.634;11.704;2023-03-31T17:08:33;15.43;70.95
71647;SHT31;59706;45.634;11.704;2023-03-31T17:11:09;15.44;71.02
71647;SHT31;59706;45.634;11.704;2023-03-31T17:13:38;15.40;71.02
71647;SHT31;59706;45.634;11.704;2023-03-31T17:16:06;15.33;71.16
71647;SHT31;59706;45.634;11.704;2023-03-31T17:18:33;15.35;71.04
71647;SHT31;59706;45.634;11.704;2023-03-31T17:21:08;15.32;70.89
71647;SHT31;59706;45.634;11.704;2023-03-31T17:23:37;15.30;70.85
71647;SHT31;59706;45.634;11.704;2023-03-31T17:26:05;15.28;71.10
71647;SHT31;59706;45.634;11.704;2023-03-31T17:28:42;15.28;71.36
71647;SHT31;59706;45.634;11.704;2023-03-31T17:31:28;15.31;71.39
71647;SHT31;59706;45.634;11.704;2023-03-31T17:33:55;15.26;71.52
71647;SHT31;59706;45.634;11.704;2023-03-31T17:36:23;15.27;71.61
71647;SHT31;59706;45.634;11.704;2023-03-31T17:38:50;15.22;71.64
71647;SHT31;59706;45.634;11.704;2023-03-31T17:41:18;15.24;71.64
71647;SHT31;59706;45.634;11.704;2023-03-31T17:43:45;15.30;71.44
71647;SHT31;59706;45.634;11.704;2023-03-31T17:46:14;15.27;71.40
71647;SHT31;59706;45.634;11.704;2023-03-31T17:48:40;15.24;71.42
71647;SHT31;59706;45.634;11.704;2023-03-31T17:51:11;15.19;71.45
71647;SHT31;59706;45.634;11.704;2023-03-31T17:53:40;15.11;71.39
71647;SHT31;59706;45.634;11.704;2023-03-31T17:56:08;15.07;71.48
71647;SHT31;59706;45.634;11.704;2023-03-31T17:58:35;15.11;71.40
71647;SHT31;59706;45.634;11.704;2023-03-31T18:01:08;15.06;71.39
71647;SHT31;59706;45.634;11.704;2023-03-31T18:03:36;14.97;71.54
71647;SHT31;59706;45.634;11.704;2023-03-31T18:06:04;15.00;71.60
71647;SHT31;59706;45.634;11.704;2023-03-31T18:08:35;14.98;71.65
71647;SHT31;59706;45.634;11.704;2023-03-31T18:11:03;14.94;71.70
71647;SHT31;59706;45.634;11.704;2023-03-31T18:13:31;14.89;71.80
71647;SHT31;59706;45.634;11.704;2023-03-31T18:16:00;14.87;71.94
71647;SHT31;59706;45.634;11.704;2023-03-31T18:18:28;14.88;72.00
71647;SHT31;59706;45.634;11.704;2023-03-31T18:20:54;14.88;72.06
71647;SHT31;59706;45.634;11.704;2023-03-31T18:23:22;14.88;72.16
71647;SHT31;59706;45.634;11.704;2023-03-31T18:25:49;14.84;72.36
71647;SHT31;59706;45.634;11.704;2023-03-31T18:28:16;14.88;72.51
71647;SHT31;59706;45.634;11.704;2023-03-31T18:30:42;14.94;72.48
71647;SHT31;59706;45.634;11.704;2023-03-31T18:33:11;14.97;72.49
71647;SHT31;59706;45.634;11.704;2023-03-31T18:35:37;14.99;72.38
71647;SHT31;59706;45.634;11.704;2023-03-31T18:38:05;14.98;72.35
71647;SHT31;59706;45.634;11.704;2023-03-31T18:40:32;14.91;72.51
71647;SHT31;59706;45.634;11.704;2023-03-31T18:43:00;14.91;72.57
71647;SHT31;59706;45.634;11.704;2023-03-31T18:45:27;14.91;72.42
71647;SHT31;59706;45.634;11.704;2023-03-31T18:47:55;14.84;72.50
71647;SHT31;59706;45.634;11.704;2023-03-31T18:50:22;14.76;72.48
71647;SHT31;59706;45.634;11.704;2023-03-31T18:52:50;14.70;72.50
71647;SHT31;59706;45.634;11.704;2023-03-31T18:55:18;14.70;72.54
71647;SHT31;59706;45.634;11.704;2023-03-31T18:57:46;14.68;72.52
71647;SHT31;59706;45.634;11.704;2023-03-31T19:00:13;14.66;72.40
71647;SHT31;59706;45.634;11.704;2023-03-31T19:02:42;14.61;72.25
71647;SHT31;59706;45.634;11.704;2023-03-31T19:05:09;14.60;72.18
71647;SHT31;59706;45.634;11.704;2023-03-31T19:07:36;14.60;72.10
71647;SHT31;59706;45.634;11.704;2023-03-31T19:10:04;14.56;72.10
71647;SHT31;59706;45.634;11.704;2023-03-31T19:12:34;14.45;72.11
71647;SHT31;59706;45.634;11.704;2023-03-31T19:15:01;14.33;72.20
71647;SHT31;59706;45.634;11.704;2023-03-31T19:17:31;14.33;72.13